sensor_id;sensor_type;location;lat;lon;timestamp;pressure;altitude;pressure_sealevel;temperature;humidity
15678;BME280;7939;50.814;6.368;2023-07-09T00:02:16;100104.50;;;27.37;48.82
15678;BME280;7939;50.814;6.368;2023-07-09T00:04:43;100100.28;;;27.34;49.09
15678;BME280;7939;50.814;6.368;2023-07-09T00:07:15;100091.66;;;27.32;49.63
15678;BME280;7939;50.814;6.368;2023-07-09T00:09:44;100091.75;;;27.31;49.42
15678;BME280;7939;50.814;6.368;2023-07-09T00:12:15;100085.78;;;27.29;49.50
15678;BME280;7939;50.814;6.368;2023-07-09T00:14:43;100091.09;;;27.27;48.97
15678;BME280;7939;50.814;6.368;2023-07-09T00:17:24;100091.22;;;27.26;49.40
15678;BME280;7939;50.814;6.368;2023-07-09T00:19:52;100098.34;;;27.24;49.42
15678;BME280;7939;50.814;6.368;2023-07-09T00:22:19;100084.47;;;27.22;49.08
15678;BME280;7939;50.814;6.368;2023-07-09T00:24:48;100093.28;;;27.21;49.60
15678;BME280;7939;50.814;6.368;2023-07-09T00:27:18;100086.34;;;27.20;48.89
15678;BME280;7939;50.814;6.368;2023-07-09T00:29:46;100090.88;;;27.18;49.21
15678;BME280;7939;50.814;6.368;2023-07-09T00:32:16;100096.22;;;27.16;49.68
15678;BME280;7939;50.814;6.368;2023-07-09T00:34:45;100091.03;;;27.14;49.51
15678;BME280;7939;50.814;6.368;2023-07-09T00:37:15;100092.94;;;27.12;49.80
15678;BME280;7939;50.814;6.368;2023-07-09T00:39:43;100097.44;;;27.10;49.39
15678;BME280;7939;50.814;6.368;2023-07-09T00:42:12;100093.22;;;27.08;49.34
15678;BME280;7939;50.814;6.368;2023-07-09T00:44:41;100093.31;;;27.06;49.29
15678;BME280;7939;50.814;6.368;2023-07-09T00:47:28;100099.53;;;27.05;49.85
15678;BME280;7939;50.814;6.368;2023-07-09T00:50:06;100098.75;;;27.03;49.76
15678;BME280;7939;50.814;6.368;2023-07-09T00:52:38;100093.56;;;27.02;49.32
15678;BME280;7939;50.814;6.368;2023-07-09T00:55:13;100106.78;;;27.00;49.52
15678;BME280;7939;50.814;6.368;2023-07-09T00:57:45;100102.59;;;26.98;49.43
15678;BME280;7939;50.814;6.368;2023-07-09T01:00:16;100105.28;;;26.96;49.55
15678;BME280;7939;50.814;6.368;2023-07-09T01:02:46;100096.69;;;26.94;49.30
15678;BME280;7939;50.814;6.368;2023-07-09T01:05:15;100099.41;;;26.93;49.76
15678;BME280;7939;50.814;6.368;2023-07-09T01:07:45;100107.38;;;26.91;49.85
15678;BME280;7939;50.814;6.368;2023-07-09T01:10:14;100110.09;;;26.89;49.31
15678;BME280;7939;50.814;6.368;2023-07-09T01:12:42;100114.59;;;26.87;49.19
15678;BME280;7939;50.814;6.368;2023-07-09T01:15:09;100115.44;;;26.88;49.42
15678;BME280;7939;50.814;6.368;2023-07-09T01:17:39;100106.94;;;26.84;49.77
15678;BME280;7939;50.814;6.368;2023-07-09T01:20:15;100105.22;;;26.83;49.67
15678;BME280;7939;50.814;6.368;2023-07-09T01:22:48;100107.84;;;26.83;49.26
15678;BME280;7939;50.814;6.368;2023-07-09T01:25:16;100108.78;;;26.82;49.21
15678;BME280;7939;50.814;6.368;2023-07-09T01:27:45;100109.72;;;26.81;49.75
15678;BME280;7939;50.814;6.368;2023-07-09T01:30:15;100126.41;;;26.80;49.29
15678;BME280;7939;50.814;6.368;2023-07-09T01:32:42;100112.63;;;26.77;49.65
15678;BME280;7939;50.814;6.368;2023-07-09T01:35:12;100113.66;;;26.74;49.89
15678;BME280;7939;50.814;6.368;2023-07-09T01:37:42;100112.94;;;26.72;49.60
15678;BME280;7939;50.814;6.368;2023-07-09T01:40:13;100115.63;;;26.71;49.96
15678;BME280;7939;50.814;6.368;2023-07-09T01:42:41;100112.25;;;26.69;50.05
15678;BME280;7939;50.814;6.368;2023-07-09T01:45:09;100111.53;;;26.67;50.32
15678;BME280;7939;50.814;6.368;2023-07-09T01:47:37;100113.31;;;26.66;49.49
15678;BME280;7939;50.814;6.368;2023-07-09T01:50:06;100109.91;;;26.64;49.77
15678;BME280;7939;50.814;6.368;2023-07-09T01:52:33;100111.78;;;26.62;49.60
15678;BME280;7939;50.814;6.368;2023-07-09T01:55:00;100110.84;;;26.63;49.35
15678;BME280;7939;50.814;6.368;2023-07-09T01:57:30;100109.19;;;26.62;50.11
15678;BME280;7939;50.814;6.368;2023-07-09T02:00:01;100115.38;;;26.61;49.35
15678;BME280;7939;50.814;6.368;2023-07-09T02:02:30;100115.47;;;26.59;49.61
15678;BME280;7939;50.814;6.368;2023-07-09T02:04:58;100112.06;;;26.57;50.13
15678;BME280;7939;50.814;6.368;2023-07-09T02:07:25;100113.97;;;26.55;49.67
15678;BME280;7939;50.814;6.368;2023-07-09T02:09:52;100105.34;;;26.53;49.86
15678;BME280;7939;50.814;6.368;2023-07-09T02:12:19;100104.59;;;26.51;49.66
15678;BME280;7939;50.814;6.368;2023-07-09T02:14:48;100115.16;;;26.50;49.98
15678;BME280;7939;50.814;6.368;2023-07-09T02:17:15;100115.25;;;26.48;49.90
15678;BME280;7939;50.814;6.368;2023-07-09T02:19:42;100108.41;;;26.46;49.82
15678;BME280;7939;50.814;6.368;2023-07-09T02:22:10;100111.13;;;26.44;49.84
15678;BME280;7939;50.814;6.368;2023-07-09T02:24:38;100112.06;;;26.43;50.09
15678;BME280;7939;50.814;6.368;2023-07-09T02:27:07;100105.16;;;26.42;49.74
15678;BME280;7939;50.814;6.368;2023-07-09T02:29:35;100108.75;;;26.40;49.97
15678;BME280;7939;50.814;6.368;2023-07-09T02:32:04;100104.44;;;26.39;49.64
15678;BME280;7939;50.814;6.368;2023-07-09T02:34:31;100102.88;;;26.36;49.89
15678;BME280;7939;50.814;6.368;2023-07-09T02:36:58;100111.66;;;26.35;49.80
15678;BME280;7939;50.814;6.368;2023-07-09T02:39:25;100109.13;;;26.33;49.84
15678;BME280;7939;50.814;6.368;2023-07-09T02:41:52;100117.06;;;26.32;50.31
15678;BME280;7939;50.814;6.368;2023-07-09T02:44:19;100113.72;;;26.30;49.95
15678;BME280;7939;50.814;6.368;2023-07-09T02:46:46;100119.91;;;26.29;49.93
15678;BME280;7939;50.814;6.368;2023-07-09T02:49:15;100117.34;;;26.27;49.87
15678;BME280;7939;50.814;6.368;2023-07-09T02:51:43;100111.25;;;26.27;50.17
15678;BME280;7939;50.814;6.368;2023-07-09T02:54:09;100116.50;;;26.27;49.56
15678;BME280;7939;50.814;6.368;2023-07-09T02:56:36;100121.84;;;26.25;50.06
15678;BME280;7939;50.814;6.368;2023-07-09T02:59:03;100117.53;;;26.24;50.36
15678;BME280;7939;50.814;6.368;2023-07-09T03:01:30;100120.25;;;26.23;50.15
15678;BME280;7939;50.814;6.368;2023-07-09T03:04:00;100121.19;;;26.22;50.10
15678;BME280;7939;50.814;6.368;2023-07-09T03:06:32;100116.03;;;26.20;49.81
15678;BME280;7939;50.814;6.368;2023-07-09T03:09:00;100118.75;;;26.19;50.29
15678;BME280;7939;50.814;6.368;2023-07-09T03:11:29;100126.72;;;26.17;50.54
15678;BME280;7939;50.814;6.368;2023-07-09T03:13:57;100125.97;;;26.15;50.67
15678;BME280;7939;50.814;6.368;2023-07-09T03:16:26;100120.78;;;26.14;50.24
15678;BME280;7939;50.814;6.368;2023-07-09T03:18:53;100113.03;;;26.12;50.43
15678;BME280;7939;50.814;6.368;2023-07-09T03:21:19;100115.75;;;26.11;50.43
15678;BME280;7939;50.814;6.368;2023-07-09T03:23:48;100112.38;;;26.08;50.19
15678;BME280;7939;50.814;6.368;2023-07-09T03:26:14;100122.88;;;26.08;50.47
15678;BME280;7939;50.814;6.368;2023-07-09T03:28:41;100120.25;;;26.08;50.32
15678;BME280;7939;50.814;6.368;2023-07-09T03:31:08;100120.31;;;26.07;50.47
15678;BME280;7939;50.814;6.368;2023-07-09T03:33:35;100122.09;;;26.06;50.35
15678;BME280;7939;50.814;6.368;2023-07-09T03:36:02;100125.66;;;26.05;50.17
15678;BME280;7939;50.814;6.368;2023-07-09T03:38:30;100127.44;;;26.05;50.42
15678;BME280;7939;50.814;6.368;2023-07-09T03:40:58;100127.53;;;26.03;50.20
15678;BME280;7939;50.814;6.368;2023-07-09T03:43:25;100128.47;;;26.02;50.45
15678;BME280;7939;50.814;6.368;2023-07-09T03:45:52;100130.22;;;26.02;50.20
15678;BME280;7939;50.814;6.368;2023-07-09T03:48:19;100131.16;;;26.01;50.16
15678;BME280;7939;50.814;6.368;2023-07-09T03:50:47;100131.25;;;25.99;50.35
15678;BME280;7939;50.814;6.368;2023-07-09T03:53:14;100133.88;;;25.99;50.41
15678;BME280;7939;50.814;6.368;2023-07-09T03:55:42;100133.97;;;25.98;50.33
15678;BME280;7939;50.814;6.368;2023-07-09T03:58:10;100131.34;;;25.98;50.54
15678;BME280;7939;50.814;6.368;2023-07-09T04:00:37;100140.13;;;25.97;50.04
15678;BME280;7939;50.814;6.368;2023-07-09T04:03:04;100140.97;;;25.97;50.04
15678;BME280;7939;50.814;6.368;2023-07-09T04:05:33;100140.97;;;25.97;49.80
15678;BME280;7939;50.814;6.368;2023-07-09T04:08:00;100145.44;;;25.95;50.40
15678;BME280;7939;50.814;6.368;2023-07-09T04:10:27;100140.19;;;25.95;50.15
15678;BME280;7939;50.814;6.368;2023-07-09T04:12:54;100131.50;;;25.95;50.16
15678;BME280;7939;50.814;6.368;2023-07-09T04:15:22;100139.34;;;25.95;49.79
15678;BME280;7939;50.814;6.368;2023-07-09T04:17:49;100145.53;;;25.94;49.92
15678;BME280;7939;50.814;6.368;2023-07-09T04:20:17;100141.31;;;25.91;50.62
15678;BME280;7939;50.814;6.368;2023-07-09T04:22:44;100133.38;;;25.93;50.57
15678;BME280;7939;50.814;6.368;2023-07-09T04:25:11;100139.56;;;25.92;50.48
15678;BME280;7939;50.814;6.368;2023-07-09T04:27:38;100133.47;;;25.91;50.41
15678;BME280;7939;50.814;6.368;2023-07-09T04:30:07;100131.78;;;25.90;50.23
15678;BME280;7939;50.814;6.368;2023-07-09T04:32:37;100130.84;;;25.91;49.87
15678;BME280;7939;50.814;6.368;2023-07-09T04:35:04;100137.03;;;25.90;50.37
15678;BME280;7939;50.814;6.368;2023-07-09T04:37:32;100132.69;;;25.89;50.65
15678;BME280;7939;50.814;6.368;2023-07-09T04:39:59;100128.41;;;25.88;50.67
15678;BME280;7939;50.814;6.368;2023-07-09T04:42:26;100132.78;;;25.88;50.42
15678;BME280;7939;50.814;6.368;2023-07-09T04:44:52;100128.50;;;25.87;50.85
15678;BME280;7939;50.814;6.368;2023-07-09T04:47:19;100125.78;;;25.88;51.11
15678;BME280;7939;50.814;6.368;2023-07-09T04:49:47;100127.66;;;25.86;51.26
15678;BME280;7939;50.814;6.368;2023-07-09T04:52:14;100131.94;;;25.87;51.53
15678;BME280;7939;50.814;6.368;2023-07-09T04:54:41;100121.47;;;25.87;51.10
15678;BME280;7939;50.814;6.368;2023-07-09T04:57:10;100124.09;;;25.87;51.79
15678;BME280;7939;50.814;6.368;2023-07-09T04:59:38;100124.94;;;25.88;51.24
15678;BME280;7939;50.814;6.368;2023-07-09T05:02:05;100124.09;;;25.87;51.19
15678;BME280;7939;50.814;6.368;2023-07-09T05:04:32;100124.94;;;25.88;51.24
15678;BME280;7939;50.814;6.368;2023-07-09T05:07:00;100119.69;;;25.88;51.14
15678;BME280;7939;50.814;6.368;2023-07-09T05:09:27;100122.22;;;25.89;51.70
15678;BME280;7939;50.814;6.368;2023-07-09T05:11:53;100126.56;;;25.90;50.97
15678;BME280;7939;50.814;6.368;2023-07-09T05:14:20;100119.59;;;25.89;50.91
15678;BME280;7939;50.814;6.368;2023-07-09T05:16:46;100117.84;;;25.90;50.95
15678;BME280;7939;50.814;6.368;2023-07-09T05:19:13;100115.13;;;25.91;51.14
15678;BME280;7939;50.814;6.368;2023-07-09T05:21:40;100109.91;;;25.91;50.80
15678;BME280;7939;50.814;6.368;2023-07-09T05:24:08;100113.38;;;25.92;51.13
15678;BME280;7939;50.814;6.368;2023-07-09T05:26:35;100114.19;;;25.92;50.72
15678;BME280;7939;50.814;6.368;2023-07-09T05:29:02;100106.34;;;25.92;50.98
15678;BME280;7939;50.814;6.368;2023-07-09T05:31:29;100106.25;;;25.94;50.77
15678;BME280;7939;50.814;6.368;2023-07-09T05:33:56;100108.78;;;25.95;50.68
15678;BME280;7939;50.814;6.368;2023-07-09T05:36:22;100108.72;;;25.97;51.04
15678;BME280;7939;50.814;6.368;2023-07-09T05:38:49;100108.59;;;25.98;50.73
15678;BME280;7939;50.814;6.368;2023-07-09T05:41:17;100106.00;;;25.98;50.55
15678;BME280;7939;50.814;6.368;2023-07-09T05:43:44;100111.22;;;25.98;50.55
15678;BME280;7939;50.814;6.368;2023-07-09T05:46:12;100112.06;;;25.99;50.66
15678;BME280;7939;50.814;6.368;2023-07-09T05:48:39;100116.38;;;26.00;50.25
15678;BME280;7939;50.814;6.368;2023-07-09T05:51:06;100114.69;;;25.99;50.55
15678;BME280;7939;50.814;6.368;2023-07-09T05:53:33;100112.06;;;25.99;50.41
15678;BME280;7939;50.814;6.368;2023-07-09T05:56:00;100118.88;;;26.01;50.48
15678;BME280;7939;50.814;6.368;2023-07-09T05:58:29;100123.13;;;26.04;51.52
15678;BME280;7939;50.814;6.368;2023-07-09T06:00:55;100124.72;;;26.06;50.86
15678;BME280;7939;50.814;6.368;2023-07-09T06:03:25;100120.41;;;26.05;50.88
15678;BME280;7939;50.814;6.368;2023-07-09T06:05:52;100118.72;;;26.04;50.46
15678;BME280;7939;50.814;6.368;2023-07-09T06:08:19;100123.03;;;26.05;50.74
15678;BME280;7939;50.814;6.368;2023-07-09T06:10:53;100120.31;;;26.07;50.82
15678;BME280;7939;50.814;6.368;2023-07-09T06:13:21;100122.09;;;26.06;50.52
15678;BME280;7939;50.814;6.368;2023-07-09T06:15:50;100133.34;;;26.08;50.49
15678;BME280;7939;50.814;6.368;2023-07-09T06:18:17;100128.94;;;26.09;50.47
15678;BME280;7939;50.814;6.368;2023-07-09T06:20:47;100135.03;;;26.09;50.48
15678;BME280;7939;50.814;6.368;2023-07-09T06:23:13;100135.75;;;26.12;50.65
15678;BME280;7939;50.814;6.368;2023-07-09T06:25:40;100139.13;;;26.14;50.79
15678;BME280;7939;50.814;6.368;2023-07-09T06:28:07;100135.50;;;26.16;50.55
15678;BME280;7939;50.814;6.368;2023-07-09T06:30:33;100138.03;;;26.18;50.71
15678;BME280;7939;50.814;6.368;2023-07-09T06:33:02;100133.63;;;26.18;50.70
15678;BME280;7939;50.814;6.368;2023-07-09T06:35:28;100135.22;;;26.21;50.56
15678;BME280;7939;50.814;6.368;2023-07-09T06:37:55;100133.47;;;26.21;50.95
15678;BME280;7939;50.814;6.368;2023-07-09T06:40:22;100131.69;;;26.22;50.65
15678;BME280;7939;50.814;6.368;2023-07-09T06:42:50;100135.97;;;26.23;50.77
15678;BME280;7939;50.814;6.368;2023-07-09T06:45:16;100128.97;;;26.23;50.38
15678;BME280;7939;50.814;6.368;2023-07-09T06:47:43;100129.72;;;26.25;50.77
15678;BME280;7939;50.814;6.368;2023-07-09T06:50:11;100121.75;;;26.27;50.69
15678;BME280;7939;50.814;6.368;2023-07-09T06:52:38;100124.94;;;26.32;50.81
15678;BME280;7939;50.814;6.368;2023-07-09T06:55:05;100137.94;;;26.33;51.03
15678;BME280;7939;50.814;6.368;2023-07-09T06:57:32;100127.28;;;26.36;51.09
15678;BME280;7939;50.814;6.368;2023-07-09T06:59:59;100128.88;;;26.39;50.84
15678;BME280;7939;50.814;6.368;2023-07-09T07:02:26;100134.91;;;26.41;50.82
15678;BME280;7939;50.814;6.368;2023-07-09T07:04:53;100130.41;;;26.43;51.12
15678;BME280;7939;50.814;6.368;2023-07-09T07:07:22;100122.47;;;26.45;50.74
15678;BME280;7939;50.814;6.368;2023-07-09T07:09:49;100129.22;;;26.49;50.68
15678;BME280;7939;50.814;6.368;2023-07-09T07:12:23;100122.94;;;26.51;51.19
15678;BME280;7939;50.814;6.368;2023-07-09T07:14:50;100127.91;;;26.56;51.16
15678;BME280;7939;50.814;6.368;2023-07-09T07:17:17;100126.84;;;26.58;51.42
15678;BME280;7939;50.814;6.368;2023-07-09T07:19:44;100130.25;;;26.60;51.06
15678;BME280;7939;50.814;6.368;2023-07-09T07:22:11;100129.22;;;26.63;50.50
15678;BME280;7939;50.814;6.368;2023-07-09T07:24:39;100133.50;;;26.64;50.87
15678;BME280;7939;50.814;6.368;2023-07-09T07:27:07;100122.75;;;26.69;51.16
15678;BME280;7939;50.814;6.368;2023-07-09T07:29:35;100121.63;;;26.73;50.67
15678;BME280;7939;50.814;6.368;2023-07-09T07:32:01;100123.88;;;26.79;51.64
15678;BME280;7939;50.814;6.368;2023-07-09T07:34:28;100119.16;;;26.84;50.78
15678;BME280;7939;50.814;6.368;2023-07-09T07:36:55;100123.31;;;26.88;50.73
15678;BME280;7939;50.814;6.368;2023-07-09T07:39:21;100113.53;;;26.90;50.16
15678;BME280;7939;50.814;6.368;2023-07-09T07:41:49;100114.22;;;26.94;50.45
15678;BME280;7939;50.814;6.368;2023-07-09T07:44:16;100111.41;;;26.97;49.79
15678;BME280;7939;50.814;6.368;2023-07-09T07:46:43;100109.41;;;27.00;49.86
15678;BME280;7939;50.814;6.368;2023-07-09T07:49:11;100106.16;;;27.11;50.82
15678;BME280;7939;50.814;6.368;2023-07-09T07:51:38;100114.38;;;27.19;49.92
15678;BME280;7939;50.814;6.368;2023-07-09T07:54:05;100111.56;;;27.22;50.30
15678;BME280;7939;50.814;6.368;2023-07-09T07:56:34;100105.94;;;27.28;49.72
15678;BME280;7939;50.814;6.368;2023-07-09T07:59:03;100100.47;;;27.31;49.45
15678;BME280;7939;50.814;6.368;2023-07-09T08:01:30;100107.22;;;27.35;49.93
15678;BME280;7939;50.814;6.368;2023-07-09T08:03:56;100104.28;;;27.40;49.67
15678;BME280;7939;50.814;6.368;2023-07-09T08:06:23;100117.00;;;27.46;49.58
15678;BME280;7939;50.814;6.368;2023-07-09T08:08:50;100115.69;;;27.53;49.29
15678;BME280;7939;50.814;6.368;2023-07-09T08:11:16;100116.13;;;27.60;49.07
15678;BME280;7939;50.814;6.368;2023-07-09T08:13:43;100114.88;;;27.65;48.84
15678;BME280;7939;50.814;6.368;2023-07-09T08:16:11;100110.19;;;27.71;49.32
15678;BME280;7939;50.814;6.368;2023-07-09T08:18:38;100115.88;;;27.77;48.73
15678;BME280;7939;50.814;6.368;2023-07-09T08:21:05;100110.34;;;27.82;48.66
15678;BME280;7939;50.814;6.368;2023-07-09T08:23:32;100110.03;;;27.86;48.41
15678;BME280;7939;50.814;6.368;2023-07-09T08:26:01;100105.31;;;27.91;48.63
15678;BME280;7939;50.814;6.368;2023-07-09T08:28:28;100111.84;;;27.99;48.52
15678;BME280;7939;50.814;6.368;2023-07-09T08:30:56;100107.84;;;28.06;48.13
15678;BME280;7939;50.814;6.368;2023-07-09T08:33:24;100103.88;;;28.13;47.92
15678;BME280;7939;50.814;6.368;2023-07-09T08:35:52;100099.03;;;28.19;48.11
15678;BME280;7939;50.814;6.368;2023-07-09T08:38:20;100109.13;;;28.26;47.81
15678;BME280;7939;50.814;6.368;2023-07-09T08:40:53;100108.81;;;28.30;47.84
15678;BME280;7939;50.814;6.368;2023-07-09T08:43:31;100106.75;;;28.35;47.66
15678;BME280;7939;50.814;6.368;2023-07-09T08:46:06;100093.81;;;28.45;46.86
15678;BME280;7939;50.814;6.368;2023-07-09T08:48:36;100094.03;;;28.55;46.99
15678;BME280;7939;50.814;6.368;2023-07-09T08:51:12;100093.47;;;28.62;47.14
15678;BME280;7939;50.814;6.368;2023-07-09T08:53:42;100087.97;;;28.65;46.94
15678;BME280;7939;50.814;6.368;2023-07-09T08:56:13;100092.94;;;28.70;46.82
15678;BME280;7939;50.814;6.368;2023-07-09T08:58:43;100084.59;;;28.76;47.06
15678;BME280;7939;50.814;6.368;2023-07-09T09:01:18;100085.72;;;28.85;46.30
15678;BME280;7939;50.814;6.368;2023-07-09T09:03:52;100081.81;;;28.90;46.34
15678;BME280;7939;50.814;6.368;2023-07-09T09:06:21;100083.97;;;28.98;45.37
15678;BME280;7939;50.814;6.368;2023-07-09T09:08:58;100082.56;;;29.05;45.50
15678;BME280;7939;50.814;6.368;2023-07-09T09:11:34;100077.69;;;29.12;45.79
15678;BME280;7939;50.814;6.368;2023-07-09T09:14:18;100076.31;;;29.19;44.97
15678;BME280;7939;50.814;6.368;2023-07-09T09:16:46;100072.16;;;29.27;45.27
15678;BME280;7939;50.814;6.368;2023-07-09T09:19:21;100069.06;;;29.34;44.89
15678;BME280;7939;50.814;6.368;2023-07-09T09:21:53;100077.47;;;29.39;45.18
15678;BME280;7939;50.814;6.368;2023-07-09T09:24:25;100076.91;;;29.46;44.72
15678;BME280;7939;50.814;6.368;2023-07-09T09:26:57;100073.66;;;29.67;44.26
15678;BME280;7939;50.814;6.368;2023-07-09T09:29:25;100070.59;;;29.84;43.24
15678;BME280;7939;50.814;6.368;2023-07-09T09:31:56;100074.13;;;30.07;42.17
15678;BME280;7939;50.814;6.368;2023-07-09T09:34:26;100065.31;;;30.19;41.29
15678;BME280;7939;50.814;6.368;2023-07-09T09:36:53;100061.94;;;30.28;41.18
15678;BME280;7939;50.814;6.368;2023-07-09T09:39:22;100060.28;;;30.27;42.31
15678;BME280;7939;50.814;6.368;2023-07-09T09:41:52;100060.53;;;30.24;42.07
15678;BME280;7939;50.814;6.368;2023-07-09T09:44:24;100051.78;;;30.24;41.53
15678;BME280;7939;50.814;6.368;2023-07-09T09:46:51;100053.69;;;30.22;42.94
15678;BME280;7939;50.814;6.368;2023-07-09T09:49:17;100049.50;;;30.19;42.56
15678;BME280;7939;50.814;6.368;2023-07-09T09:51:46;100047.81;;;30.18;43.07
15678;BME280;7939;50.814;6.368;2023-07-09T09:54:18;100036.06;;;30.22;42.29
15678;BME280;7939;50.814;6.368;2023-07-09T09:56:48;100040.84;;;30.28;42.03
15678;BME280;7939;50.814;6.368;2023-07-09T09:59:20;100041.94;;;30.37;42.18
15678;BME280;7939;50.814;6.368;2023-07-09T10:01:56;100035.47;;;30.41;42.37
15678;BME280;7939;50.814;6.368;2023-07-09T10:04:22;100039.66;;;30.44;42.01
15678;BME280;7939;50.814;6.368;2023-07-09T10:06:52;100050.81;;;30.47;42.10
15678;BME280;7939;50.814;6.368;2023-07-09T10:09:29;100048.66;;;30.52;42.17
15678;BME280;7939;50.814;6.368;2023-07-09T10:12:09;100055.50;;;30.55;42.14
15678;BME280;7939;50.814;6.368;2023-07-09T10:14:46;100054.75;;;30.64;41.74
15678;BME280;7939;50.814;6.368;2023-07-09T10:17:20;100056.22;;;30.68;42.39
15678;BME280;7939;50.814;6.368;2023-07-09T10:19:55;100059.94;;;30.77;41.67
15678;BME280;7939;50.814;6.368;2023-07-09T10:22:38;100056.81;;;30.83;41.77
15678;BME280;7939;50.814;6.368;2023-07-09T10:25:15;100060.03;;;30.86;41.28
15678;BME280;7939;50.814;6.368;2023-07-09T10:28:14;100054.97;;;30.95;41.64
15678;BME280;7939;50.814;6.368;2023-07-09T10:30:50;100059.56;;;30.93;41.33
15678;BME280;7939;50.814;6.368;2023-07-09T10:33:26;100045.00;;;30.98;42.01
15678;BME280;7939;50.814;6.368;2023-07-09T10:35:58;100053.25;;;31.05;41.71
15678;BME280;7939;50.814;6.368;2023-07-09T10:38:43;100049.41;;;31.09;41.11
15678;BME280;7939;50.814;6.368;2023-07-09T10:41:12;100040.88;;;31.16;40.83
15678;BME280;7939;50.814;6.368;2023-07-09T10:43:44;100037.00;;;31.21;40.74
15678;BME280;7939;50.814;6.368;2023-07-09T10:46:15;100035.72;;;31.26;40.97
15678;BME280;7939;50.814;6.368;2023-07-09T10:48:45;100039.06;;;31.28;40.65
15678;BME280;7939;50.814;6.368;2023-07-09T10:51:19;100035.06;;;31.34;40.28
15678;BME280;7939;50.814;6.368;2023-07-09T10:53:51;100030.25;;;31.39;40.80
15678;BME280;7939;50.814;6.368;2023-07-09T10:56:24;100028.19;;;31.42;40.21
15678;BME280;7939;50.814;6.368;2023-07-09T10:58:56;100027.25;;;31.44;40.90
15678;BME280;7939;50.814;6.368;2023-07-09T11:01:29;100026.84;;;31.48;40.33
15678;BME280;7939;50.814;6.368;2023-07-09T11:04:01;100030.63;;;31.55;40.23
15678;BME280;7939;50.814;6.368;2023-07-09T11:06:34;100026.78;;;31.59;40.63
15678;BME280;7939;50.814;6.368;2023-07-09T11:09:11;100023.44;;;31.57;40.06
15678;BME280;7939;50.814;6.368;2023-07-09T11:11:43;100030.03;;;31.63;39.88
15678;BME280;7939;50.814;6.368;2023-07-09T11:14:27;100021.81;;;31.66;40.08
15678;BME280;7939;50.814;6.368;2023-07-09T11:16:56;100023.25;;;31.70;40.02
15678;BME280;7939;50.814;6.368;2023-07-09T11:19:24;100022.00;;;31.74;39.84
15678;BME280;7939;50.814;6.368;2023-07-09T11:21:59;100024.28;;;31.79;39.96
15678;BME280;7939;50.814;6.368;2023-07-09T11:24:33;100017.66;;;31.84;39.28
15678;BME280;7939;50.814;6.368;2023-07-09T11:27:00;100026.28;;;31.86;39.59
15678;BME280;7939;50.814;6.368;2023-07-09T11:29:27;100015.59;;;31.88;39.73
15678;BME280;7939;50.814;6.368;2023-07-09T11:31:54;100020.88;;;31.88;39.95
15678;BME280;7939;50.814;6.368;2023-07-09T11:34:27;100018.09;;;31.89;39.30
15678;BME280;7939;50.814;6.368;2023-07-09T11:36:58;100018.09;;;31.89;39.41
15678;BME280;7939;50.814;6.368;2023-07-09T11:39:28;100012.16;;;31.97;38.46
15678;BME280;7939;50.814;6.368;2023-07-09T11:41:58;100016.09;;;32.03;38.67
15678;BME280;7939;50.814;6.368;2023-07-09T11:44:26;100011.50;;;32.05;38.24
15678;BME280;7939;50.814;6.368;2023-07-09T11:47:04;100023.63;;;32.07;38.92
15678;BME280;7939;50.814;6.368;2023-07-09T11:49:46;100021.69;;;32.09;38.99
15678;BME280;7939;50.814;6.368;2023-07-09T11:52:18;100028.78;;;32.09;38.57
15678;BME280;7939;50.814;6.368;2023-07-09T11:54:46;100031.03;;;32.13;38.90
15678;BME280;7939;50.814;6.368;2023-07-09T11:57:14;100025.75;;;32.13;38.59
15678;BME280;7939;50.814;6.368;2023-07-09T11:59:41;100025.47;;;32.16;38.10
15678;BME280;7939;50.814;6.368;2023-07-09T12:02:15;100024.78;;;32.14;37.96
15678;BME280;7939;50.814;6.368;2023-07-09T12:04:42;100022.13;;;32.14;38.39
15678;BME280;7939;50.814;6.368;2023-07-09T12:07:13;100014.06;;;32.16;37.72
15678;BME280;7939;50.814;6.368;2023-07-09T12:09:46;100006.13;;;32.16;37.96
15678;BME280;7939;50.814;6.368;2023-07-09T12:12:20;99997.34;;;32.15;38.43
15678;BME280;7939;50.814;6.368;2023-07-09T12:14:47;99986.91;;;32.14;38.20
15678;BME280;7939;50.814;6.368;2023-07-09T12:17:14;99990.63;;;32.11;37.34
15678;BME280;7939;50.814;6.368;2023-07-09T12:19:41;99992.59;;;32.09;37.62
15678;BME280;7939;50.814;6.368;2023-07-09T12:22:14;99992.72;;;32.08;38.12
15678;BME280;7939;50.814;6.368;2023-07-09T12:24:43;99991.63;;;32.10;38.14
15678;BME280;7939;50.814;6.368;2023-07-09T12:27:21;100001.13;;;32.13;38.62
15678;BME280;7939;50.814;6.368;2023-07-09T12:29:51;99983.44;;;32.13;38.16
15678;BME280;7939;50.814;6.368;2023-07-09T12:32:19;99971.19;;;32.12;38.43
15678;BME280;7939;50.814;6.368;2023-07-09T12:34:50;99966.72;;;32.13;38.14
15678;BME280;7939;50.814;6.368;2023-07-09T12:37:18;99979.41;;;32.19;38.23
15678;BME280;7939;50.814;6.368;2023-07-09T12:39:47;99974.81;;;32.21;38.17
15678;BME280;7939;50.814;6.368;2023-07-09T12:42:16;99976.09;;;32.27;37.41
15678;BME280;7939;50.814;6.368;2023-07-09T12:44:46;99983.44;;;32.23;38.25
15678;BME280;7939;50.814;6.368;2023-07-09T12:47:14;99984.19;;;32.25;37.53
15678;BME280;7939;50.814;6.368;2023-07-09T12:49:43;99983.31;;;32.25;37.79
15678;BME280;7939;50.814;6.368;2023-07-09T12:52:15;99988.50;;;32.26;37.16
15678;BME280;7939;50.814;6.368;2023-07-09T12:54:51;99988.75;;;32.23;37.79
15678;BME280;7939;50.814;6.368;2023-07-09T12:57:18;99986.81;;;32.25;37.72
15678;BME280;7939;50.814;6.368;2023-07-09T12:59:47;99986.28;;;32.31;37.51
15678;BME280;7939;50.814;6.368;2023-07-09T13:02:16;99986.41;;;32.30;37.99
15678;BME280;7939;50.814;6.368;2023-07-09T13:04:44;99991.25;;;32.25;38.01
15678;BME280;7939;50.814;6.368;2023-07-09T13:07:26;99998.50;;;32.22;37.69
15678;BME280;7939;50.814;6.368;2023-07-09T13:09:54;100009.47;;;32.18;38.17
15678;BME280;7939;50.814;6.368;2023-07-09T13:12:28;100021.16;;;32.15;37.77